메인 페이지
METAR-TAF:

METAR-TAF

공항 :

테구시갈파, 온두라스

위도: 14-03N, 경도: 087-13W, 고도: 994m

현재 날씨관측

예보는 21분 전, 13:01시(UTC)에 발표되었습니다.
4kt
온도 23°C
습도 83%
기압 1018 hPa
시정: 3000m
고도 3000ft 상공 구름 조금
연기,

METAR: MHTG 251301Z 10004KT 6000 3000SW FU FEW030 23/20 Q1018 A3006 NOSIG

시각: 07:22 (13:22 UTC)

예보

예보는 2 시간 32분 전, 10:50시(UTC)에 발표되었습니다.
예보 대상 시간: 25일 12시부터 26일 12시까지 (UTC)
여러 방향의 바람 5kt
시정: 3000m
고도 3000ft 상공 구름 조금
연기
전환 중
25일 16시부터 25일 18시까지 (UTC)
8kt
시정: 5000m
고도 3200ft 상공 구름 보통, 타워링 적운.
연기
일시적
25일 20시부터 25일 24시까지 (UTC)
고도 3400ft 상공 구름 보통, 타워링 적운.
고도 3600ft 상공 구름 조금, 적란운.
소나기
전환 중
26일 01시부터 26일 03시까지 (UTC)
여러 방향의 바람 4kt
시정: 6000m
고도 3200ft 상공 구름 많음
전환 중
26일 10시부터 26일 12시까지 (UTC)
시정: 3000m
고도 2800ft 상공 구름 조금
연기,

TAF: MHTG 251050Z 2512/2612 VRB05KT 3000 FU FEW030 TX31/2520Z TN21/2612Z BECMG 2516/2518 18008KT 5000 FU SCT032TCU TEMPO 2520/2524 SHRA SCT034TCU FEW036CB BECMG 2601/2603 VRB04KT 6000 BKN032 BECMG 2610/2612 3000 FU FEW028

4,000개 이상의 공항 관측 자료 및 예보 (METAR 및 TAF 보고).

지도상에서 검색 가능한 기상관측소가 노란 점과 빨간 점으로 표시되어 있습니다.

기상관측소 명을 보려면 표시 위로 마우스를 이동하세요.

날씨 관측과 예보를 보려면 클릭하세요.

지도 변경 : 확대하려면 엑스 표시가 있는 녹색 버튼, 축소하려면 빼기 표시가 있는 녹색 버튼, 다음 페이지의 지도를 보려면 녹색 화살표를 클릭하세요.


METAR-TAF: